Time;durP1;ratioP1;P1;durP2;ratioP2;P2;SDS_P1;SDS_P2;PMS_P1;PMS_P2;Temp;Humidity;BMP_temperature;BMP_pressure;BME280_temperature;BME280_humidity;BME280_pressure;Samples;Min_cycle;Max_cycle;Signal;HPM_P1;HPM_P2
2022/11/16 00:04:01;;;;;;;0.10;0.10;;;;;;;8.95;100.00;100444.47;10600753;28;20391;-87
2022/11/16 00:09:21;;;;;;;0.10;0.10;;;;;;;8.85;100.00;100441.09;10601645;28;20016;-87
2022/11/16 00:14:23;;;;;;;0.00;0.00;;;;;;;8.66;100.00;100441.31;10601698;28;20497;-88
2022/11/16 00:19:24;;;;;;;0.10;0.10;;;;;;;8.50;100.00;100432.25;10596741;28;20395;-88
2022/11/16 00:24:25;;;;;;;0.00;0.00;;;;;;;8.44;100.00;100430.22;10592720;27;20071;-88
2022/11/16 00:29:25;;;;;;;0.00;0.00;;;;;;;8.38;100.00;100417.53;10602618;27;20023;-88
2022/11/16 00:34:26;;;;;;;0.00;0.00;;;;;;;8.35;100.00;100426.66;10584989;28;20119;-87
2022/11/16 00:39:26;;;;;;;0.10;0.10;;;;;;;8.23;100.00;100433.19;10604957;27;20019;-87
2022/11/16 00:44:26;;;;;;;0.00;0.00;;;;;;;8.16;100.00;100422.34;10603475;27;20286;-88
2022/11/16 00:49:27;;;;;;;0.10;0.10;;;;;;;8.09;100.00;100423.13;10595711;27;20024;-87
2022/11/16 00:54:27;;;;;;;0.00;0.00;;;;;;;8.02;100.00;100420.22;10596910;27;20023;-87
2022/11/16 00:59:27;;;;;;;0.00;0.00;;;;;;;8.00;100.00;100414.25;10602456;27;20261;-88
2022/11/16 01:04:28;;;;;;;0.00;0.00;;;;;;;7.91;100.00;100399.22;10599776;27;20076;-87
2022/11/16 01:09:28;;;;;;;0.00;0.00;;;;;;;7.93;100.00;100405.22;10601259;27;20456;-88
2022/11/16 01:14:29;;;;;;;0.00;0.00;;;;;;;7.97;100.00;100400.44;10602587;27;20043;-87
2022/11/16 01:19:29;;;;;;;0.00;0.00;;;;;;;7.97;100.00;100393.34;10605829;27;20011;-88
2022/11/16 01:24:30;;;;;;;0.00;0.00;;;;;;;8.03;100.00;100400.69;10598992;27;20011;-89
2022/11/16 01:29:31;;;;;;;0.10;0.10;;;;;;;8.01;100.00;100384.09;10600881;27;20019;-87
2022/11/16 01:34:31;;;;;;;0.00;0.00;;;;;;;7.91;100.00;100378.00;10598966;27;20018;-88
2022/11/16 01:39:32;;;;;;;0.10;0.10;;;;;;;7.92;100.00;100380.53;10610129;27;20027;-88
2022/11/16 01:44:32;;;;;;;0.00;0.00;;;;;;;7.86;100.00;100386.44;10610144;27;20024;-87
2022/11/16 01:49:36;;;;;;;0.08;0.08;;;;;;;7.78;100.00;100382.88;10596087;27;20068;-88
2022/11/16 01:54:40;;;;;;;0.10;0.10;;;;;;;7.65;100.00;100368.19;10612569;27;20010;-88
2022/11/16 01:59:43;;;;;;;0.10;0.10;;;;;;;7.63;100.00;100364.03;10562899;22;20054;-89
2022/11/16 02:04:46;;;;;;;0.10;0.10;;;;;;;7.56;100.00;100361.13;10498605;28;20024;-89
2022/11/16 02:10:05;;;;;;;0.10;0.10;;;;;;;7.53;100.00;100374.69;10503671;28;20024;-89
2022/11/16 02:15:37;;;;;;;0.00;0.00;;;;;;;7.42;100.00;100356.38;10500759;28;20020;-89
2022/11/16 02:21:11;;;;;;;0.00;0.00;;;;;;;7.38;100.00;100347.88;10516302;28;20020;-89
2022/11/16 02:26:38;;;;;;;0.00;0.00;;;;;;;7.36;100.00;100347.22;10518694;28;20076;-89
2022/11/16 02:31:45;;;;;;;0.00;0.00;;;;;;;7.26;100.00;100339.31;10498924;28;20028;-89
2022/11/16 02:36:51;;;;;;;0.00;0.00;;;;;;;7.26;100.00;100341.97;10500129;28;20016;-88
2022/11/16 02:41:53;;;;;;;0.00;0.00;;;;;;;7.17;100.00;100342.03;10497470;28;20020;-89
2022/11/16 02:46:58;;;;;;;0.00;0.00;;;;;;;7.15;100.00;100334.22;10498212;28;20012;-89
2022/11/16 02:51:59;;;;;;;0.00;0.00;;;;;;;7.14;100.00;100359.06;10502148;28;20012;-88
2022/11/16 02:57:03;;;;;;;0.00;0.00;;;;;;;7.13;100.00;100346.81;10497184;28;20475;-89
2022/11/16 03:02:40;;;;;;;0.00;0.00;;;;;;;7.08;100.00;100349.06;10499170;28;20036;-87
2022/11/16 03:07:57;;;;;;;0.00;0.00;;;;;;;7.01;100.00;100326.78;10498567;28;20046;-88
2022/11/16 03:13:01;;;;;;;0.00;0.00;;;;;;;6.94;100.00;100328.38;10498275;28;20381;-89
2022/11/16 03:18:03;;;;;;;0.00;0.00;;;;;;;6.91;100.00;100334.78;10514710;28;20017;-89
2022/11/16 03:23:07;;;;;;;0.00;0.00;;;;;;;6.90;100.00;100338.41;10501517;28;20588;-89
2022/11/16 03:28:18;;;;;;;;;;;;;;;6.91;100.00;100321.53;10496708;28;20403;-89
2022/11/16 03:33:26;;;;;;;0.10;0.10;;;;;;;6.89;100.00;100315.56;10515046;28;19935;-89
2022/11/16 03:38:27;;;;;;;0.00;0.00;;;;;;;6.82;100.00;100306.56;10495708;28;20391;-90
2022/11/16 03:43:29;;;;;;;0.00;0.00;;;;;;;6.85;100.00;100322.13;10498804;28;20008;-89
2022/11/16 03:48:34;;;;;;;0.10;0.10;;;;;;;6.83;100.00;100332.03;10498689;28;20016;-89
2022/11/16 03:53:35;;;;;;;0.10;0.10;;;;;;;6.81;100.00;100315.47;10493632;28;20020;-89
2022/11/16 03:58:35;;;;;;;0.00;0.00;;;;;;;6.78;100.00;100311.31;10496920;28;20033;-89
2022/11/16 04:03:35;;;;;;;0.00;0.00;;;;;;;6.79;100.00;100320.09;10515444;28;20146;-89
2022/11/16 04:24:36;;;;;;;0.00;0.00;;;;;;;6.81;100.00;100315.47;10519587;28;20021;-89
2022/11/16 04:29:38;;;;;;;0.00;0.00;;;;;;;6.81;100.00;100326.06;10503225;28;20016;-89
2022/11/16 04:39:57;;;;;;;0.00;0.00;;;;;;;6.82;100.00;100342.78;10522024;28;20024;-89
2022/11/16 04:50:18;;;;;;;0.00;0.00;;;;;;;6.73;100.00;100323.31;10523901;28;20266;-88
2022/11/16 04:55:18;;;;;;;0.08;0.08;;;;;;;6.70;100.00;100315.66;10503766;28;20028;-89
2022/11/16 05:00:20;;;;;;;0.00;0.00;;;;;;;6.62;100.00;100305.81;10494914;28;20035;-88
2022/11/16 05:05:20;;;;;;;0.00;0.00;;;;;;;6.66;100.00;100320.44;10496894;28;20048;-88
2022/11/16 05:10:20;;;;;;;0.00;0.00;;;;;;;6.64;100.00;100324.19;10504420;28;20086;-88
2022/11/16 05:15:21;;;;;;;0.00;0.00;;;;;;;6.65;100.00;100320.56;10504166;28;20047;-88
2022/11/16 05:25:40;;;;;;;0.00;0.00;;;;;;;6.65;100.00;100315.28;10520733;28;20063;-87
2022/11/16 05:30:44;;;;;;;0.00;0.00;;;;;;;6.62;100.00;100310.28;10519510;28;20071;-89
2022/11/16 05:35:44;;;;;;;0.00;0.00;;;;;;;6.70;100.00;100342.13;10505486;28;20093;-88
2022/11/16 05:40:45;;;;;;;0.00;0.00;;;;;;;6.70;100.00;100345.63;10522782;28;20024;-88
2022/11/16 05:45:45;;;;;;;0.00;0.00;;;;;;;6.75;100.00;100348.66;10516602;28;20672;-87
2022/11/16 05:50:45;;;;;;;0.00;0.00;;;;;;;6.69;100.00;100338.66;10519550;28;20049;-89
2022/11/16 05:55:46;;;;;;;0.00;0.00;;;;;;;6.69;100.00;100333.38;10502640;28;20019;-88
2022/11/16 06:00:46;;;;;;;0.00;0.00;;;;;;;6.64;100.00;100325.03;10501711;28;20027;-89
2022/11/16 06:05:46;;;;;;;0.10;0.10;;;;;;;6.73;100.00;100337.38;10498806;28;20032;-88
2022/11/16 06:10:47;;;;;;;0.00;0.00;;;;;;;6.66;100.00;100335.44;10502982;28;20259;-89
2022/11/16 06:15:47;;;;;;;0.00;0.00;;;;;;;6.71;100.00;100346.44;10520962;28;20287;-89
2022/11/16 06:20:47;;;;;;;0.00;0.00;;;;;;;6.64;100.00;100350.66;10501453;28;20030;-89
2022/11/16 06:25:54;;;;;;;0.00;0.00;;;;;;;6.70;100.00;100366.78;10506255;28;20472;-89
2022/11/16 06:30:55;;;;;;;0.00;0.00;;;;;;;6.65;100.00;100339.09;10520527;28;20259;-89
2022/11/16 06:35:55;;;;;;;0.00;0.00;;;;;;;6.67;100.00;100360.97;10493527;28;20012;-89
2022/11/16 06:40:57;;;;;;;0.00;0.00;;;;;;;6.66;100.00;100365.44;10502355;28;20023;-88
2022/11/16 06:45:57;;;;;;;0.00;0.00;;;;;;;6.62;100.00;100368.50;10499645;28;20257;-89
2022/11/16 06:50:57;;;;;;;0.00;0.00;;;;;;;6.55;100.00;100362.94;10496328;28;20030;-89
2022/11/16 06:56:03;;;;;;;0.00;0.00;;;;;;;6.49;100.00;100380.25;10500482;28;20024;-88
2022/11/16 07:01:07;;;;;;;0.00;0.00;;;;;;;6.48;100.00;100356.56;10512679;28;20020;-88
2022/11/16 07:06:08;;;;;;;;;;;;;;;6.46;100.00;100356.72;10515895;28;20055;-87
2022/11/16 07:11:10;;;;;;;0.10;0.10;;;;;;;6.38;100.00;100353.94;10492832;28;19977;-86
2022/11/16 07:16:10;;;;;;;0.00;0.00;;;;;;;6.34;100.00;100349.91;10503362;28;20038;-86
2022/11/16 07:21:13;;;;;;;0.00;0.00;;;;;;;6.39;100.00;100363.53;10496937;28;20024;-86
2022/11/16 07:26:14;;;;;;;0.10;0.10;;;;;;;6.33;100.00;100362.28;10517210;28;20027;-86
2022/11/16 07:31:15;;;;;;;0.00;0.00;;;;;;;6.36;100.00;100374.41;10496586;28;20020;-87
2022/11/16 07:36:15;;;;;;;0.00;0.00;;;;;;;6.29;100.00;100373.31;10494414;28;20017;-87
2022/11/16 07:41:18;;;;;;;0.00;0.00;;;;;;;6.33;100.00;100372.06;10489894;28;20506;-88
2022/11/16 07:46:20;;;;;;;0.00;0.00;;;;;;;6.34;100.00;100381.66;10495448;28;20017;-89
2022/11/16 07:51:21;;;;;;;0.00;0.00;;;;;;;6.28;100.00;100388.38;10503669;28;20020;-87
2022/11/16 08:01:25;;;;;;;0.03;0.03;;;;;;;6.26;100.00;100363.88;10522494;28;20044;-88
2022/11/16 08:06:28;;;;;;;0.00;0.00;;;;;;;6.33;100.00;100359.66;10494636;28;20035;-88
2022/11/16 08:11:28;;;;;;;0.00;0.00;;;;;;;6.32;100.00;100367.75;10480862;28;20024;-87
2022/11/16 08:16:28;;;;;;;0.00;0.00;;;;;;;6.33;100.00;100354.38;10496018;28;20032;-87
2022/11/16 08:21:29;;;;;;;0.10;0.10;;;;;;;6.36;100.00;100369.13;10496564;28;20035;-89
2022/11/16 08:26:30;;;;;;;0.00;0.00;;;;;;;6.38;100.00;100358.41;10498710;28;20070;-88
2022/11/16 08:31:30;;;;;;;0.00;0.00;;;;;;;6.37;100.00;100362.00;10500317;28;20013;-89
2022/11/16 08:36:31;;;;;;;0.00;0.00;;;;;;;6.41;100.00;100364.25;10548528;28;20036;-88
2022/11/16 08:41:34;;;;;;;0.00;0.00;;;;;;;6.41;100.00;100350.19;10537005;28;20021;-88
2022/11/16 08:46:34;;;;;;;0.00;0.00;;;;;;;6.43;100.00;100364.09;10544568;28;20043;-88
2022/11/16 08:51:35;;;;;;;0.03;0.03;;;;;;;6.48;100.00;100361.84;10546901;28;20043;-88
2022/11/16 08:56:35;;;;;;;0.00;0.00;;;;;;;6.50;100.00;100378.41;10549768;28;20028;-89
2022/11/16 09:01:36;;;;;;;0.00;0.00;;;;;;;6.44;100.00;100358.66;10548479;28;20058;-90
2022/11/16 09:06:36;;;;;;;0.00;0.00;;;;;;;6.50;100.00;100381.06;10546307;28;20272;-89
2022/11/16 09:11:37;;;;;;;0.00;0.00;;;;;;;6.50;100.00;100381.06;10549794;28;20803;-88
2022/11/16 09:16:37;;;;;;;0.00;0.00;;;;;;;6.54;100.00;100390.38;10542771;28;20042;-89
2022/11/16 09:21:38;;;;;;;0.03;0.03;;;;;;;6.48;100.00;100391.78;10566475;28;20036;-88
2022/11/16 09:26:38;;;;;;;0.10;0.10;;;;;;;6.50;100.00;100397.78;10550198;28;20010;-89
2022/11/16 09:31:39;;;;;;;0.00;0.00;;;;;;;6.46;100.00;100408.81;10547651;28;20055;-88
2022/11/16 09:36:39;;;;;;;0.00;0.00;;;;;;;6.48;100.00;100409.47;10546422;28;20342;-89
2022/11/16 09:41:42;;;;;;;0.00;0.00;;;;;;;6.53;100.00;100417.81;10549010;28;20004;-88
2022/11/16 09:46:51;;;;;;;0.00;0.00;;;;;;;6.48;100.00;100420.88;10539715;28;20019;-89
2022/11/16 09:51:58;;;;;;;0.00;0.00;;;;;;;6.49;100.00;100433.16;10531481;28;20040;-89
2022/11/16 09:57:00;;;;;;;0.00;0.00;;;;;;;6.58;100.00;100442.88;10537656;28;20015;-90
2022/11/16 10:02:34;;;;;;;0.00;0.00;;;;;;;6.59;100.00;100433.13;10549208;28;20011;-89
2022/11/16 10:07:44;;;;;;;0.00;0.00;;;;;;;6.62;100.00;100445.25;10542145;28;20019;-89
2022/11/16 10:12:58;;;;;;;0.00;0.00;;;;;;;6.59;100.00;100435.78;10544482;28;20039;-89
2022/11/16 10:18:14;;;;;;;0.00;0.00;;;;;;;6.55;100.00;100437.88;10532539;28;20012;-89
2022/11/16 10:23:33;;;;;;;0.10;0.10;;;;;;;6.46;100.00;100425.50;10541189;28;20088;-88
2022/11/16 10:29:00;;;;;;;0.00;0.00;;;;;;;6.44;100.00;100437.19;10543356;28;20027;-88
2022/11/16 10:34:17;;;;;;;0.00;0.00;;;;;;;6.42;100.00;100442.63;10488248;28;20751;-78
2022/11/16 10:39:19;;;;;;;0.00;0.00;;;;;;;6.38;100.00;100430.66;10488194;28;20032;-77
2022/11/16 10:44:33;;;;;;;0.00;0.00;;;;;;;6.39;100.00;100426.19;10488449;28;20033;-77
2022/11/16 10:49:50;;;;;;;0.00;0.00;;;;;;;6.38;100.00;100422.72;10487826;28;20025;-77
2022/11/16 10:54:51;;;;;;;0.00;0.00;;;;;;;6.41;100.00;100421.63;10486095;28;20028;-77
2022/11/16 10:59:57;;;;;;;0.00;0.00;;;;;;;6.34;100.00;100426.63;10486146;28;20422;-77
2022/11/16 11:05:19;;;;;;;0.08;0.08;;;;;;;6.30;100.00;100417.31;10486944;28;20017;-77
2022/11/16 11:10:35;;;;;;;0.00;0.00;;;;;;;6.24;100.00;100418.69;10485236;28;20380;-77
2022/11/16 11:15:36;;;;;;;0.00;0.00;;;;;;;6.26;100.00;100424.69;10486427;28;20395;-77
2022/11/16 11:20:40;;;;;;;0.03;0.03;;;;;;;6.23;100.00;100424.97;10486230;28;20104;-77
2022/11/16 11:25:49;;;;;;;0.00;0.00;;;;;;;6.22;100.00;100431.22;10485638;28;20024;-75
2022/11/16 11:31:00;;;;;;;0.00;0.00;;;;;;;6.21;100.00;100432.22;10485560;28;20067;-77
2022/11/16 11:36:00;;;;;;;0.00;0.00;;;;;;;6.21;100.00;100421.63;10485840;28;20037;-77
2022/11/16 11:41:04;;;;;;;0.00;0.00;;;;;;;6.22;100.00;100438.31;10482651;28;20017;-76
2022/11/16 11:46:27;;;;;;;0.00;0.00;;;;;;;6.23;100.00;100435.56;10457977;28;20028;-77
2022/11/16 11:51:34;;;;;;;0.05;0.05;;;;;;;6.24;100.00;100442.50;10457908;28;20039;-76
2022/11/16 11:56:35;;;;;;;0.00;0.00;;;;;;;6.28;100.00;100421.91;10456135;28;20123;-77
2022/11/16 12:01:54;;;;;;;0.00;0.00;;;;;;;6.32;100.00;100418.84;10457562;28;20100;-76
2022/11/16 12:07:04;;;;;;;0.00;0.00;;;;;;;6.38;100.00;100408.66;10456968;28;20510;-76
2022/11/16 12:12:20;;;;;;;0.00;0.00;;;;;;;6.41;100.00;100406.56;10456815;28;20085;-76
2022/11/16 12:17:29;;;;;;;0.00;0.00;;;;;;;6.45;100.00;100407.13;10453755;28;20025;-76
2022/11/16 12:23:05;;;;;;;0.00;0.00;;;;;;;6.50;100.00;100410.16;10456882;28;20088;-76
2022/11/16 12:28:18;;;;;;;0.00;0.00;;;;;;;6.50;100.00;100420.75;10456379;28;20079;-76
2022/11/16 12:33:20;;;;;;;0.00;0.00;;;;;;;6.53;100.00;100408.06;10456000;28;20033;-76
2022/11/16 12:39:07;;;;;;;0.00;0.00;;;;;;;6.56;100.00;100413.06;10455532;28;20083;-76
2022/11/16 12:44:10;;;;;;;0.00;0.00;;;;;;;6.60;100.00;100405.66;10446306;28;20051;-76
2022/11/16 12:49:48;;;;;;;0.00;0.00;;;;;;;6.65;100.00;100405.25;10455228;28;20058;-76
2022/11/16 12:55:13;;;;;;;0.00;0.00;;;;;;;6.67;100.00;100419.19;10453862;28;20372;-76
2022/11/16 13:00:15;;;;;;;0.00;0.00;;;;;;;6.67;100.00;100420.00;10454609;28;20036;-76
2022/11/16 13:05:20;;;;;;;0.00;0.00;;;;;;;6.71;100.00;100421.38;10454333;28;20226;-76
2022/11/16 13:10:26;;;;;;;;;;;;;;;6.73;100.00;100415.97;10454287;28;20060;-76
2022/11/16 13:15:36;;;;;;;0.00;0.00;;;;;;;6.76;100.00;100407.72;10454045;28;20379;-76
2022/11/16 13:21:15;;;;;;;0.00;0.00;;;;;;;6.76;100.00;100403.25;10453661;28;20029;-75
2022/11/16 13:26:32;;;;;;;0.00;0.00;;;;;;;6.79;100.00;100395.03;10453677;28;20487;-75
2022/11/16 13:31:38;;;;;;;0.00;0.00;;;;;;;6.80;100.00;100394.03;10453080;28;20036;-76
2022/11/16 13:36:44;;;;;;;0.00;0.00;;;;;;;6.82;100.00;100387.78;10452994;28;20178;-75
2022/11/16 13:41:48;;;;;;;0.00;0.00;;;;;;;6.84;100.00;100396.44;10452920;28;20021;-75
2022/11/16 13:46:53;;;;;;;;;;;;;;;6.83;100.00;100386.78;10453440;28;20074;-75
2022/11/16 13:51:57;;;;;;;0.00;0.00;;;;;;;6.83;100.00;100397.38;10452684;28;20367;-75
2022/11/16 13:56:59;;;;;;;0.00;0.00;;;;;;;6.77;100.00;100394.34;10467251;22;20036;-87
2022/11/16 14:02:02;;;;;;;0.00;0.00;;;;;;;6.67;100.00;100380.31;10432417;28;20152;-88
2022/11/16 14:07:03;;;;;;;0.00;0.00;;;;;;;6.67;100.00;100390.91;10429422;28;20067;-89
2022/11/16 14:12:37;;;;;;;0.00;0.00;;;;;;;6.68;100.00;100395.22;10431793;28;20400;-89
2022/11/16 14:17:55;;;;;;;0.00;0.00;;;;;;;6.68;100.00;100392.56;10452435;28;20255;-89
2022/11/16 14:23:34;;;;;;;0.00;0.00;;;;;;;6.67;100.00;100392.72;10458881;28;20028;-88
2022/11/16 14:28:47;;;;;;;0.00;0.00;;;;;;;6.65;100.00;100392.84;10464003;28;20167;-89
2022/11/16 14:33:53;;;;;;;0.00;0.00;;;;;;;6.68;100.00;100410.25;10419536;28;20017;-89
2022/11/16 14:38:54;;;;;;;0.00;0.00;;;;;;;6.65;100.00;100387.56;10447837;28;20014;-89
2022/11/16 14:43:57;;;;;;;0.00;0.00;;;;;;;6.55;100.00;100395.53;10428279;28;20077;-89
2022/11/16 14:48:59;;;;;;;0.10;0.10;;;;;;;6.51;100.00;100385.38;10426302;28;20485;-89
2022/11/16 14:54:13;;;;;;;0.00;0.00;;;;;;;6.42;100.00;100379.13;10432820;28;20037;-88
2022/11/16 14:59:16;;;;;;;0.00;0.00;;;;;;;6.37;100.00;100384.03;10427805;28;20415;-89
2022/11/16 15:04:17;;;;;;;0.00;0.00;;;;;;;6.34;100.00;100389.56;10456806;28;20028;-89
2022/11/16 15:09:39;;;;;;;0.00;0.00;;;;;;;6.19;100.00;100375.97;10425474;28;20020;-91
2022/11/16 15:14:51;;;;;;;0.00;0.00;;;;;;;6.19;100.00;100373.31;10433238;28;20025;-90
2022/11/16 15:20:00;;;;;;;0.00;0.00;;;;;;;6.04;100.00;100348.31;10435382;28;20044;-90
2022/11/16 15:25:01;;;;;;;0.00;0.00;;;;;;;6.09;100.00;100364.59;10466216;28;20031;-90
2022/11/16 15:30:23;;;;;;;0.00;0.00;;;;;;;6.13;100.00;100377.38;10429081;28;20024;-89
2022/11/16 15:35:32;;;;;;;0.00;0.00;;;;;;;6.16;100.00;100373.59;10442827;28;20028;-89
2022/11/16 15:40:33;;;;;;;0.00;0.00;;;;;;;6.09;100.00;100368.06;10433705;28;20052;-90
2022/11/16 15:45:36;;;;;;;0.00;0.00;;;;;;;6.10;100.00;100380.28;10431987;28;20021;-89
2022/11/16 15:50:36;;;;;;;0.00;0.00;;;;;;;6.09;100.00;100369.88;10445877;28;20044;-88
2022/11/16 15:55:39;;;;;;;0.00;0.00;;;;;;;6.10;100.00;100372.34;10440123;28;20049;-89
2022/11/16 16:00:40;;;;;;;0.00;0.00;;;;;;;6.12;100.00;100377.53;10438091;28;20025;-88
2022/11/16 16:05:41;;;;;;;0.00;0.00;;;;;;;6.11;100.00;100381.16;10435117;28;20032;-88
2022/11/16 16:10:41;;;;;;;0.00;0.00;;;;;;;6.09;100.00;100391.84;10422533;28;20024;-88
2022/11/16 16:15:41;;;;;;;0.00;0.00;;;;;;;6.07;100.00;100377.94;10439944;28;20033;-88
2022/11/16 16:20:46;;;;;;;0.00;0.00;;;;;;;6.11;100.00;100389.09;10436604;28;20076;-88
2022/11/16 16:25:47;;;;;;;0.00;0.00;;;;;;;6.01;100.00;100367.94;10431327;28;20029;-88
2022/11/16 16:30:50;;;;;;;0.00;0.00;;;;;;;6.01;100.00;100385.59;10414094;28;20404;-88
2022/11/16 16:35:50;;;;;;;0.00;0.00;;;;;;;5.99;100.00;100377.81;10434354;28;20024;-87
2022/11/16 16:40:50;;;;;;;0.00;0.00;;;;;;;5.93;100.00;100402.16;10437052;28;20025;-89
2022/11/16 16:45:50;;;;;;;0.00;0.00;;;;;;;5.90;100.00;100397.13;10445438;28;20274;-87
2022/11/16 16:50:51;;;;;;;0.00;0.00;;;;;;;5.88;100.00;100399.09;10443044;28;20051;-88
2022/11/16 16:55:51;;;;;;;0.00;0.00;;;;;;;5.85;100.00;100397.56;10480106;28;20040;-88
2022/11/16 17:00:52;;;;;;;0.00;0.00;;;;;;;5.84;100.00;100411.72;10457619;28;20016;-88
2022/11/16 17:05:58;;;;;;;0.00;0.00;;;;;;;5.79;100.00;100400.75;10433382;28;20568;-90
2022/11/16 17:10:58;;;;;;;0.03;0.03;;;;;;;5.77;100.00;100394.75;10426253;28;20025;-91
2022/11/16 17:16:03;;;;;;;0.00;0.00;;;;;;;5.80;100.00;100410.34;10425628;28;20132;-90
2022/11/16 17:21:08;;;;;;;0.00;0.00;;;;;;;5.82;100.00;100429.53;10438277;28;20295;-90
2022/11/16 17:26:08;;;;;;;;;;;;;;;5.82;100.00;100418.97;10436799;28;20497;-89
2022/11/16 17:31:10;;;;;;;0.00;0.00;;;;;;;5.66;100.00;100395.72;10418898;28;19920;-91
2022/11/16 17:36:12;;;;;;;0.00;0.00;;;;;;;5.73;100.00;100406.59;10421252;28;20025;-90
2022/11/16 17:41:14;;;;;;;0.00;0.00;;;;;;;5.76;100.00;100411.59;10434366;28;20033;-90
2022/11/16 17:46:17;;;;;;;0.00;0.00;;;;;;;5.72;100.00;100415.47;10428050;28;20108;-91
2022/11/16 17:51:19;;;;;;;0.00;0.00;;;;;;;5.68;100.00;100419.38;10461895;28;20485;-92
2022/11/16 17:56:25;;;;;;;0.00;0.00;;;;;;;5.64;100.00;100418.81;10421091;28;20186;-91
2022/11/16 18:01:26;;;;;;;0.00;0.00;;;;;;;5.46;100.00;100394.03;10421067;28;20021;-92
2022/11/16 18:06:27;;;;;;;0.00;0.00;;;;;;;5.49;100.00;100414.88;10413358;28;20077;-92
2022/11/16 18:11:27;;;;;;;0.00;0.00;;;;;;;5.56;100.00;100433.69;10409639;28;20092;-91
2022/11/16 18:16:30;;;;;;;0.00;0.00;;;;;;;5.56;100.00;100423.94;10408256;28;20033;-91
2022/11/16 18:21:37;;;;;;;0.00;0.00;;;;;;;5.52;100.00;100427.81;10444117;28;20479;-92
2022/11/16 18:26:39;;;;;;;0.00;0.00;;;;;;;5.51;100.00;100425.34;10428280;28;20049;-91
2022/11/16 18:31:40;;;;;;;0.00;0.00;;;;;;;5.43;100.00;100416.25;10429198;28;20028;-91
2022/11/16 18:36:41;;;;;;;0.00;0.00;;;;;;;5.41;100.00;100412.09;10424280;28;20044;-92
2022/11/16 18:41:44;;;;;;;0.00;0.00;;;;;;;5.40;100.00;100416.53;10425235;28;20013;-91
2022/11/16 18:46:44;;;;;;;0.00;0.00;;;;;;;5.38;100.00;100402.66;10452987;28;20323;-91
2022/11/16 18:51:45;;;;;;;0.10;0.10;;;;;;;5.42;100.00;100419.06;10435052;28;20116;-92
2022/11/16 18:56:45;;;;;;;0.00;0.00;;;;;;;5.39;100.00;100411.41;10429547;28;20494;-92
2022/11/16 19:01:45;;;;;;;0.00;0.00;;;;;;;5.31;100.00;100398.03;10426636;28;20025;-91
2022/11/16 19:06:45;;;;;;;0.00;0.00;;;;;;;5.24;100.00;100381.91;10430125;28;20029;-91
2022/11/16 19:11:46;;;;;;;0.00;0.00;;;;;;;5.27;100.00;100386.91;10430422;28;20025;-91
2022/11/16 19:16:47;;;;;;;0.00;0.00;;;;;;;5.34;100.00;100398.59;10426352;28;20022;-91
2022/11/16 19:21:50;;;;;;;0.00;0.00;;;;;;;5.24;100.00;100381.91;10434830;28;20032;-91
2022/11/16 19:26:51;;;;;;;0.00;0.00;;;;;;;5.22;100.00;100386.47;10427706;28;20025;-92
2022/11/16 19:31:51;;;;;;;0.00;0.00;;;;;;;5.14;100.00;100373.13;10428069;28;20021;-91
2022/11/16 19:36:51;;;;;;;0.00;0.00;;;;;;;5.19;100.00;100382.31;10446220;28;20389;-91
2022/11/16 19:41:52;;;;;;;0.00;0.00;;;;;;;5.12;100.00;100367.13;10425064;28;20018;-91
2022/11/16 19:46:53;;;;;;;0.00;0.00;;;;;;;5.21;100.00;100392.75;10426875;28;20639;-91
2022/11/16 19:51:53;;;;;;;0.00;0.00;;;;;;;5.24;100.00;100391.63;10440394;28;20018;-90
2022/11/16 20:02:04;;;;;;;0.00;0.00;;;;;;;5.19;100.00;100397.31;10456233;22;20049;-89
2022/11/16 20:07:06;;;;;;;0.10;0.10;;;;;;;5.14;100.00;100367.84;10432467;28;20025;-88
2022/11/16 20:12:06;;;;;;;0.00;0.00;;;;;;;5.13;100.00;100377.56;10434750;28;20299;-88
2022/11/16 20:17:06;;;;;;;0.00;0.00;;;;;;;5.12;100.00;100377.69;10437035;28;20507;-89
2022/11/16 20:22:07;;;;;;;0.00;0.00;;;;;;;5.06;100.00;100360.59;10440493;28;20256;-88
2022/11/16 20:27:08;;;;;;;0.00;0.00;;;;;;;5.08;100.00;100361.28;10434849;28;20317;-87
2022/11/16 20:32:08;;;;;;;0.00;0.00;;;;;;;5.02;100.00;100355.72;10436120;28;20025;-89
2022/11/16 20:37:08;;;;;;;0.00;0.00;;;;;;;5.04;100.00;100364.34;10436702;28;20102;-87
2022/11/16 20:42:09;;;;;;;0.00;0.00;;;;;;;5.05;100.00;100366.84;10433739;28;20492;-89
2022/11/16 20:47:09;;;;;;;0.00;0.00;;;;;;;5.08;100.00;100365.75;10438156;28;20451;-88
2022/11/16 20:52:09;;;;;;;0.00;0.00;;;;;;;4.96;100.00;100342.09;10439269;28;20018;-88
2022/11/16 20:57:09;;;;;;;0.00;0.00;;;;;;;5.07;100.00;100357.00;10428371;28;20087;-88
2022/11/16 21:02:10;;;;;;;0.00;0.00;;;;;;;4.90;100.00;100352.34;10438349;28;20068;-88
2022/11/16 21:07:10;;;;;;;0.00;0.00;;;;;;;4.82;100.00;100346.91;10435999;28;20052;-89
2022/11/16 21:17:29;;;;;;;0.00;0.00;;;;;;;4.73;100.00;100341.44;10434327;28;20064;-88
2022/11/16 21:22:30;;;;;;;0.00;0.00;;;;;;;4.70;100.00;100362.00;10439768;28;20059;-88
2022/11/16 21:27:30;;;;;;;0.00;0.00;;;;;;;4.65;100.00;100343.09;10432188;28;20437;-88
2022/11/16 21:32:30;;;;;;;0.00;0.00;;;;;;;4.60;100.00;100334.75;10435841;28;20017;-88
2022/11/16 21:37:30;;;;;;;0.00;0.00;;;;;;;4.64;100.00;100336.97;10433494;28;20841;-88
2022/11/16 21:42:31;;;;;;;0.00;0.00;;;;;;;4.52;100.00;100316.94;10435193;28;20021;-88
2022/11/16 21:47:31;;;;;;;0.00;0.00;;;;;;;4.60;100.00;100322.41;10433850;28;20021;-88
2022/11/16 21:52:31;;;;;;;0.00;0.00;;;;;;;4.61;100.00;100341.69;10440136;28;20016;-88
2022/11/16 21:57:32;;;;;;;0.00;0.00;;;;;;;4.60;100.00;100353.22;10437260;28;20025;-88
2022/11/16 22:02:32;;;;;;;0.03;0.03;;;;;;;4.49;100.00;100339.13;10434243;28;21273;-89
2022/11/16 22:07:32;;;;;;;0.00;0.00;;;;;;;4.54;100.00;100338.75;10432156;28;20021;-89
2022/11/16 22:12:33;;;;;;;0.00;0.00;;;;;;;4.50;100.00;100332.06;10430836;28;20017;-89
2022/11/16 22:17:34;;;;;;;0.00;0.00;;;;;;;4.54;100.00;100336.94;10431486;28;20106;-89
2022/11/16 22:22:34;;;;;;;0.00;0.00;;;;;;;4.53;100.00;100335.25;10440325;28;20556;-90
2022/11/16 22:27:34;;;;;;;0.00;0.00;;;;;;;4.47;100.00;100324.41;10434244;28;20017;-88
2022/11/16 22:32:35;;;;;;;0.00;0.00;;;;;;;4.57;100.00;100337.63;10422463;28;20026;-89
2022/11/16 22:37:35;;;;;;;0.00;0.00;;;;;;;4.51;100.00;100334.56;10445164;28;20107;-90
2022/11/16 22:42:35;;;;;;;0.00;0.00;;;;;;;4.51;100.00;100312.66;10415292;28;20021;-90
2022/11/16 22:47:36;;;;;;;0.00;0.00;;;;;;;4.58;100.00;100321.69;10437416;28;20076;-91
2022/11/16 22:52:36;;;;;;;0.00;0.00;;;;;;;4.53;100.00;100308.06;10439431;28;20021;-90
2022/11/16 22:57:36;;;;;;;0.00;0.00;;;;;;;4.50;100.00;100301.25;10418643;28;20033;-91
2022/11/16 23:02:37;;;;;;;0.00;0.00;;;;;;;4.61;100.00;100310.88;10430946;28;20018;-90
2022/11/16 23:07:37;;;;;;;0.00;0.00;;;;;;;4.52;100.00;100295.84;10439995;28;20666;-90
2022/11/16 23:17:56;;;;;;;0.00;0.00;;;;;;;4.62;100.00;100296.69;10433281;28;20029;-90
2022/11/16 23:28:17;;;;;;;0.00;0.00;;;;;;;4.62;100.00;100298.50;10436537;28;20339;-91
2022/11/16 23:33:42;;;;;;;0.00;0.00;;;;;;;4.63;100.00;100282.56;10433987;28;20021;-91
2022/11/16 23:38:38;;;;;;;0.00;0.00;;;;;;;4.60;100.00;100260.91;10433315;28;20056;-90
2022/11/16 23:43:57;;;;;;;0.00;0.00;;;;;;;4.61;100.00;100246.72;10437002;28;20490;-91
2022/11/16 23:48:57;;;;;;;0.00;0.00;;;;;;;4.60;100.00;100245.06;10441419;28;20033;-91
2022/11/16 23:53:58;;;;;;;0.00;0.00;;;;;;;4.56;100.00;100235.75;10447415;28;20025;-90
2022/11/16 23:58:58;;;;;;;0.00;0.00;;;;;;;4.54;100.00;100251.72;10440824;28;20033;-89
